createdAt,value
2023-09-26T00:01:32.559Z,99.90
2023-09-26T00:04:02.249Z,99.90
2023-09-26T00:06:29.607Z,99.90
2023-09-26T00:08:56.583Z,99.90
2023-09-26T00:11:24.133Z,99.90
2023-09-26T00:13:51.770Z,99.90
2023-09-26T00:16:21.054Z,99.90
2023-09-26T00:18:50.283Z,99.90
2023-09-26T00:21:17.220Z,99.90
2023-09-26T00:23:44.146Z,99.90
2023-09-26T00:26:13.370Z,99.90
2023-09-26T00:28:47.815Z,99.90
2023-09-26T00:31:18.254Z,99.90
2023-09-26T00:33:47.512Z,99.90
2023-09-26T00:36:17.276Z,99.90
2023-09-26T00:38:46.747Z,99.90
2023-09-26T00:41:13.697Z,99.90
2023-09-26T00:43:42.932Z,99.90
2023-09-26T00:46:11.516Z,99.90
2023-09-26T00:48:41.549Z,99.90
2023-09-26T00:51:09.337Z,99.90
2023-09-26T00:53:39.577Z,99.90
2023-09-26T00:56:11.231Z,99.90
2023-09-26T00:58:39.428Z,99.90
2023-09-26T01:01:06.582Z,99.90
2023-09-26T01:03:36.163Z,99.90
2023-09-26T01:06:03.932Z,99.90
2023-09-26T01:08:32.022Z,99.90
2023-09-26T01:11:02.370Z,99.90
2023-09-26T01:13:29.294Z,99.90
2023-09-26T01:15:57.585Z,99.90
2023-09-26T01:18:26.721Z,99.90
2023-09-26T01:20:53.604Z,99.90
2023-09-26T01:23:26.717Z,99.90
2023-09-26T01:25:55.264Z,99.90
2023-09-26T01:28:22.335Z,99.90
2023-09-26T01:30:51.552Z,99.90
2023-09-26T01:33:22.391Z,99.90
2023-09-26T01:35:52.000Z,99.90
2023-09-26T01:38:23.137Z,99.90
2023-09-26T01:40:50.084Z,99.90
2023-09-26T01:43:17.386Z,99.90
2023-09-26T01:45:44.458Z,99.90
2023-09-26T01:48:13.831Z,99.90
2023-09-26T01:50:42.949Z,99.90
2023-09-26T01:53:15.078Z,99.90
2023-09-26T01:55:42.425Z,99.90
2023-09-26T01:58:09.348Z,99.90
2023-09-26T02:00:36.384Z,99.90
2023-09-26T02:03:03.613Z,99.90
2023-09-26T02:05:34.856Z,99.90
2023-09-26T02:08:02.045Z,99.90
2023-09-26T02:10:29.154Z,99.90
2023-09-26T02:12:56.140Z,99.90
2023-09-26T02:15:27.519Z,99.90
2023-09-26T02:17:55.223Z,99.90
2023-09-26T02:20:22.130Z,99.90
2023-09-26T02:22:52.815Z,99.90
2023-09-26T02:25:21.450Z,99.90
2023-09-26T02:27:49.977Z,99.90
2023-09-26T02:30:19.846Z,99.90
2023-09-26T02:32:49.391Z,99.90
2023-09-26T02:35:17.311Z,99.90
2023-09-26T02:37:44.690Z,99.90
2023-09-26T02:40:12.147Z,99.90
2023-09-26T02:42:41.794Z,99.90
2023-09-26T02:45:09.633Z,99.90
2023-09-26T02:47:36.593Z,99.90
2023-09-26T02:50:04.101Z,99.90
2023-09-26T02:52:35.862Z,99.90
2023-09-26T02:55:03.511Z,99.90
2023-09-26T02:57:34.634Z,99.90
2023-09-26T03:00:12.515Z,99.90
2023-09-26T03:02:42.934Z,99.90
2023-09-26T03:05:12.811Z,99.90
2023-09-26T03:07:40.960Z,99.90
2023-09-26T03:10:11.180Z,99.90
2023-09-26T03:12:38.329Z,99.90
2023-09-26T03:15:07.893Z,99.90
2023-09-26T03:17:37.251Z,99.90
2023-09-26T03:20:09.927Z,99.90
2023-09-26T03:22:36.938Z,99.90
2023-09-26T03:25:04.192Z,99.90
2023-09-26T03:27:35.079Z,99.90
2023-09-26T03:30:04.499Z,99.90
2023-09-26T03:32:31.508Z,99.90
2023-09-26T03:34:58.456Z,99.90
2023-09-26T03:37:25.743Z,99.90
2023-09-26T03:39:52.786Z,99.90
2023-09-26T03:42:19.728Z,99.90
2023-09-26T03:44:48.883Z,99.90
2023-09-26T03:47:16.039Z,99.90
2023-09-26T03:49:45.547Z,99.90
2023-09-26T03:52:12.543Z,99.90
2023-09-26T03:54:41.982Z,99.90
2023-09-26T03:57:09.282Z,99.90
2023-09-26T03:59:38.331Z,99.90
2023-09-26T04:02:05.332Z,99.90
2023-09-26T04:04:32.912Z,99.90
2023-09-26T04:07:00.175Z,99.90
2023-09-26T04:09:30.097Z,99.90
2023-09-26T04:11:57.040Z,99.90
2023-09-26T04:14:24.269Z,99.90
2023-09-26T04:16:51.192Z,99.90
2023-09-26T04:19:20.845Z,99.90
2023-09-26T04:21:47.937Z,99.90
2023-09-26T04:24:15.275Z,99.90
2023-09-26T04:26:44.915Z,99.90
2023-09-26T04:29:12.542Z,99.90
2023-09-26T04:31:41.873Z,99.90
2023-09-26T04:34:08.884Z,99.90
2023-09-26T04:36:35.829Z,99.90
2023-09-26T04:39:02.871Z,99.90
2023-09-26T04:41:29.832Z,99.90
2023-09-26T04:43:56.756Z,99.90
2023-09-26T04:46:23.762Z,99.90
2023-09-26T04:48:53.078Z,99.90
2023-09-26T04:51:22.410Z,99.90
2023-09-26T04:53:49.779Z,99.90
2023-09-26T04:56:17.330Z,99.90
2023-09-26T04:58:44.116Z,99.90
2023-09-26T05:01:16.515Z,99.90
2023-09-26T05:03:45.069Z,99.90
2023-09-26T05:06:18.707Z,99.90
2023-09-26T05:08:49.241Z,99.90
2023-09-26T05:11:16.773Z,99.90
2023-09-26T05:13:44.933Z,99.90
2023-09-26T05:16:13.920Z,99.90
2023-09-26T05:18:42.062Z,99.90
2023-09-26T05:21:12.979Z,99.90
2023-09-26T05:23:40.534Z,99.90
2023-09-26T05:26:10.750Z,99.90
2023-09-26T05:28:38.170Z,99.90
2023-09-26T05:31:06.196Z,99.90
2023-09-26T05:33:36.309Z,99.90
2023-09-26T05:36:05.526Z,99.90
2023-09-26T05:38:35.143Z,99.90
2023-09-26T05:41:02.006Z,99.90
2023-09-26T05:43:30.308Z,99.90
2023-09-26T05:46:01.246Z,99.90
2023-09-26T05:48:33.054Z,99.90
2023-09-26T05:51:06.118Z,99.90
2023-09-26T05:53:36.085Z,99.90
2023-09-26T05:56:04.956Z,99.90
2023-09-26T05:58:32.478Z,99.90
2023-09-26T06:01:07.494Z,99.90
2023-09-26T06:03:39.762Z,99.90
2023-09-26T06:06:07.281Z,99.90
2023-09-26T06:08:35.331Z,99.90
2023-09-26T06:11:05.665Z,99.90
2023-09-26T06:13:32.729Z,99.90
2023-09-26T06:15:59.675Z,99.90
2023-09-26T06:18:29.040Z,99.90
2023-09-26T06:20:55.959Z,99.90
2023-09-26T06:23:22.963Z,99.90
2023-09-26T06:26:00.013Z,99.90
2023-09-26T06:28:29.775Z,99.90
2023-09-26T06:31:10.943Z,99.90
2023-09-26T06:33:38.563Z,99.90
2023-09-26T06:36:19.064Z,99.90
2023-09-26T06:38:46.169Z,99.90
2023-09-26T06:41:13.299Z,99.90
2023-09-26T06:43:40.370Z,99.90
2023-09-26T06:46:09.682Z,99.90
2023-09-26T06:48:39.890Z,99.90
2023-09-26T06:51:36.064Z,99.90
2023-09-26T06:54:03.366Z,99.90
2023-09-26T06:56:30.700Z,99.90
2023-09-26T06:58:57.732Z,99.90
2023-09-26T07:01:27.043Z,99.90
2023-09-26T07:03:56.835Z,99.90
2023-09-26T07:06:23.845Z,99.90
2023-09-26T07:08:51.637Z,99.90
2023-09-26T07:11:19.137Z,99.90
2023-09-26T07:13:49.163Z,99.90
2023-09-26T07:16:16.889Z,99.90
2023-09-26T07:18:46.251Z,99.90
2023-09-26T07:21:13.505Z,99.90
2023-09-26T07:23:42.842Z,99.90
2023-09-26T07:26:18.661Z,99.90
2023-09-26T07:28:46.200Z,99.90
2023-09-26T07:31:15.163Z,99.90
2023-09-26T07:33:43.662Z,99.90
2023-09-26T07:36:11.399Z,99.90
2023-09-26T07:38:40.597Z,99.90
2023-09-26T07:41:07.578Z,99.90
2023-09-26T07:43:39.139Z,99.90
2023-09-26T07:46:08.200Z,99.90
2023-09-26T07:48:39.291Z,99.90
2023-09-26T07:51:12.802Z,99.90
2023-09-26T07:53:41.607Z,99.90
2023-09-26T07:56:08.554Z,99.90
2023-09-26T07:58:35.497Z,99.90
2023-09-26T08:01:07.724Z,99.90
2023-09-26T08:03:35.700Z,99.90
2023-09-26T08:06:07.632Z,99.90
2023-09-26T08:08:38.175Z,99.90
2023-09-26T08:11:12.596Z,99.90
2023-09-26T08:13:41.115Z,99.90
2023-09-26T08:16:11.178Z,99.90
2023-09-26T08:18:40.690Z,99.90
2023-09-26T08:21:12.878Z,99.90
2023-09-26T08:23:39.789Z,99.80
2023-09-26T08:26:08.006Z,99.70
2023-09-26T08:28:35.349Z,99.40
2023-09-26T08:31:11.190Z,99.30
2023-09-26T08:33:38.816Z,99.00
2023-09-26T08:36:19.942Z,98.90
2023-09-26T08:38:51.052Z,98.80
2023-09-26T08:41:21.941Z,98.30
2023-09-26T08:43:49.056Z,98.30
2023-09-26T08:46:16.570Z,97.80
2023-09-26T08:48:44.827Z,97.10
2023-09-26T08:51:11.837Z,97.00
2023-09-26T08:53:41.168Z,96.80
2023-09-26T08:56:10.325Z,96.50
2023-09-26T08:58:44.927Z,96.20
2023-09-26T09:01:12.389Z,96.00
2023-09-26T09:03:41.557Z,95.80
2023-09-26T09:06:10.815Z,95.80
2023-09-26T09:08:40.526Z,95.80
2023-09-26T09:11:07.639Z,95.40
2023-09-26T09:13:41.878Z,95.30
2023-09-26T09:16:13.032Z,95.20
2023-09-26T09:18:45.114Z,95.20
2023-09-26T09:21:31.866Z,95.00
2023-09-26T09:23:59.889Z,94.70
2023-09-26T09:26:32.539Z,94.30
2023-09-26T09:29:20.302Z,94.40
2023-09-26T09:31:48.380Z,93.90
2023-09-26T09:34:26.742Z,93.50
2023-09-26T09:36:57.006Z,93.80
2023-09-26T09:39:24.281Z,93.40
2023-09-26T09:42:04.776Z,93.20
2023-09-26T09:44:32.329Z,92.70
2023-09-26T09:47:04.282Z,92.40
2023-09-26T09:49:33.473Z,92.40
2023-09-26T09:52:06.167Z,92.00
2023-09-26T09:54:34.904Z,91.90
2023-09-26T09:57:12.385Z,92.00
2023-09-26T09:59:45.082Z,91.60
2023-09-26T10:02:18.067Z,91.20
2023-09-26T10:04:56.828Z,91.30
2023-09-26T10:07:28.805Z,91.10
2023-09-26T10:09:56.292Z,90.80
2023-09-26T10:12:33.618Z,90.50
2023-09-26T10:15:02.014Z,90.40
2023-09-26T10:17:29.183Z,90.20
2023-09-26T10:22:36.981Z,88.60
2023-09-26T10:25:06.042Z,87.50
2023-09-26T10:27:43.482Z,87.40
2023-09-26T10:30:21.915Z,87.50
2023-09-26T10:32:49.224Z,87.30
2023-09-26T10:35:17.526Z,86.90
2023-09-26T10:37:53.715Z,85.50
2023-09-26T10:40:23.234Z,85.60
2023-09-26T10:45:23.079Z,83.20
2023-09-26T10:50:37.506Z,83.50
2023-09-26T10:53:04.706Z,83.20
2023-09-26T10:55:32.393Z,83.70
2023-09-26T10:58:03.045Z,83.20
2023-09-26T11:00:32.597Z,84.30
2023-09-26T11:03:02.508Z,83.90
2023-09-26T11:05:32.816Z,83.30
2023-09-26T11:08:01.136Z,83.70
2023-09-26T11:10:30.902Z,83.00
2023-09-26T11:13:00.527Z,83.10
2023-09-26T11:15:27.685Z,82.60
2023-09-26T11:17:54.740Z,82.80
2023-09-26T11:20:21.761Z,82.20
2023-09-26T11:22:50.533Z,81.50
2023-09-26T11:25:17.513Z,82.00
2023-09-26T11:27:46.624Z,82.00
2023-09-26T11:30:18.204Z,81.50
2023-09-26T11:32:50.745Z,81.50
2023-09-26T11:35:19.976Z,81.20
2023-09-26T11:37:54.535Z,81.20
2023-09-26T11:40:26.691Z,79.90
2023-09-26T11:42:56.917Z,79.90
2023-09-26T11:45:28.002Z,79.50
2023-09-26T11:47:58.659Z,79.40
2023-09-26T11:50:28.095Z,79.70
2023-09-26T11:53:02.953Z,80.00
2023-09-26T11:55:32.768Z,77.10
2023-09-26T11:58:02.828Z,77.50
2023-09-26T12:00:30.327Z,77.30
2023-09-26T12:02:57.692Z,75.90
2023-09-26T12:05:24.925Z,75.00
2023-09-26T12:07:52.132Z,76.70
2023-09-26T12:10:20.121Z,75.70
2023-09-26T12:12:49.356Z,73.10
2023-09-26T12:15:28.602Z,73.10
2023-09-26T12:17:58.148Z,71.20
2023-09-26T12:20:30.121Z,71.30
2023-09-26T12:22:58.457Z,70.50
2023-09-26T12:25:31.491Z,72.00
2023-09-26T12:27:58.720Z,71.00
2023-09-26T12:30:25.889Z,72.20
2023-09-26T12:32:53.176Z,71.30
2023-09-26T12:35:22.507Z,72.70
2023-09-26T12:37:49.546Z,72.70
2023-09-26T12:40:16.558Z,73.20
2023-09-26T12:42:44.282Z,72.40
2023-09-26T12:45:11.885Z,72.60
2023-09-26T12:47:39.365Z,71.30
2023-09-26T12:50:11.313Z,69.90
2023-09-26T12:52:40.549Z,70.30
2023-09-26T12:55:09.446Z,70.70
2023-09-26T12:57:38.428Z,70.20
2023-09-26T13:00:12.244Z,70.10
2023-09-26T13:02:41.100Z,69.80
2023-09-26T13:05:09.238Z,69.20
2023-09-26T13:07:36.454Z,70.30
2023-09-26T13:10:11.849Z,70.40
2023-09-26T13:12:44.125Z,69.40
2023-09-26T13:15:11.914Z,69.50
2023-09-26T13:17:41.455Z,69.00
2023-09-26T13:20:12.448Z,68.30
2023-09-26T13:22:42.221Z,68.50
2023-09-26T13:25:09.599Z,68.70
2023-09-26T13:27:38.982Z,68.10
2023-09-26T13:30:07.491Z,67.70
2023-09-26T13:32:39.062Z,66.90
2023-09-26T13:35:06.568Z,68.10
2023-09-26T13:37:36.057Z,68.60
2023-09-26T13:40:06.147Z,69.00
2023-09-26T13:42:33.234Z,68.10
2023-09-26T13:45:00.153Z,68.30
2023-09-26T13:47:28.241Z,68.70
2023-09-26T13:49:55.403Z,68.40
2023-09-26T13:52:22.449Z,68.00
2023-09-26T13:54:50.064Z,67.40
2023-09-26T13:57:19.546Z,67.40
2023-09-26T13:59:48.240Z,67.70
2023-09-26T14:02:20.229Z,68.50
2023-09-26T14:05:03.550Z,67.50
2023-09-26T14:07:40.398Z,67.30
2023-09-26T14:10:08.095Z,67.40
2023-09-26T14:12:34.982Z,67.80
2023-09-26T14:15:04.481Z,65.90
2023-09-26T14:17:32.117Z,66.80
2023-09-26T14:20:01.414Z,66.70
2023-09-26T14:22:28.419Z,66.00
2023-09-26T14:24:55.996Z,65.20
2023-09-26T14:27:22.934Z,65.90
2023-09-26T14:29:49.947Z,66.30
2023-09-26T14:32:21.354Z,67.70
2023-09-26T14:34:50.874Z,65.70
2023-09-26T14:37:17.897Z,66.70
2023-09-26T14:39:44.816Z,67.70
2023-09-26T14:42:11.866Z,66.50
2023-09-26T14:44:41.381Z,66.00
2023-09-26T14:47:09.389Z,64.50
2023-09-26T14:49:38.661Z,64.50
2023-09-26T14:52:05.668Z,64.90
2023-09-26T14:54:32.789Z,64.80
2023-09-26T14:56:59.833Z,65.50
2023-09-26T14:59:28.861Z,64.50
2023-09-26T15:01:58.155Z,64.50
2023-09-26T15:04:26.795Z,64.70
2023-09-26T15:06:56.272Z,64.10
2023-09-26T15:09:23.510Z,65.70
2023-09-26T15:11:52.686Z,66.10
2023-09-26T15:14:19.686Z,66.70
2023-09-26T15:16:48.945Z,65.60
2023-09-26T15:19:22.071Z,66.20
2023-09-26T15:21:49.090Z,65.60
2023-09-26T15:24:16.073Z,64.80
2023-09-26T15:26:45.316Z,63.90
2023-09-26T15:29:12.273Z,64.80
2023-09-26T15:31:39.200Z,65.30
2023-09-26T15:34:05.969Z,65.20
2023-09-26T15:36:32.829Z,67.10
2023-09-26T15:38:59.774Z,64.20
2023-09-26T15:41:31.268Z,63.90
2023-09-26T15:43:58.843Z,64.10
2023-09-26T15:46:26.030Z,64.80
2023-09-26T15:48:55.589Z,63.90
2023-09-26T15:51:22.676Z,64.60
2023-09-26T15:53:50.097Z,65.10
2023-09-26T15:56:18.138Z,64.30
2023-09-26T15:58:46.930Z,63.50
2023-09-26T16:01:13.950Z,63.40
2023-09-26T16:03:40.949Z,63.90
2023-09-26T16:06:07.888Z,63.40
2023-09-26T16:08:39.562Z,63.40
2023-09-26T16:11:08.699Z,64.30
2023-09-26T16:13:38.423Z,65.10
2023-09-26T16:16:09.189Z,65.40
2023-09-26T16:18:36.326Z,64.70
2023-09-26T16:21:04.928Z,65.50
2023-09-26T16:23:32.035Z,65.60
2023-09-26T16:25:59.502Z,66.10
2023-09-26T16:28:28.425Z,66.30
2023-09-26T16:30:55.525Z,67.50
2023-09-26T16:33:24.852Z,66.50
2023-09-26T16:35:56.422Z,66.80
2023-09-26T16:38:23.940Z,67.50
2023-09-26T16:40:52.974Z,68.60
2023-09-26T16:43:22.283Z,69.60
2023-09-26T16:45:51.726Z,70.40
2023-09-26T16:48:18.734Z,71.40
2023-09-26T16:50:45.859Z,72.30
2023-09-26T16:53:12.749Z,71.90
2023-09-26T16:55:39.887Z,72.90
2023-09-26T16:58:10.088Z,74.10
2023-09-26T17:00:37.091Z,75.30
2023-09-26T17:03:04.091Z,76.20
2023-09-26T17:05:31.119Z,76.80
2023-09-26T17:08:00.287Z,77.50
2023-09-26T17:10:29.805Z,78.60
2023-09-26T17:13:01.627Z,79.30
2023-09-26T17:15:29.113Z,79.90
2023-09-26T17:17:56.083Z,80.60
2023-09-26T17:20:23.097Z,81.70
2023-09-26T17:22:54.934Z,82.90
2023-09-26T17:25:21.863Z,83.70
2023-09-26T17:27:48.772Z,84.20
2023-09-26T17:30:18.165Z,84.70
2023-09-26T17:32:45.936Z,84.90
2023-09-26T17:35:13.028Z,86.10
2023-09-26T17:37:40.053Z,86.60
2023-09-26T17:40:07.765Z,87.30
2023-09-26T17:42:34.775Z,88.80
2023-09-26T17:45:04.626Z,90.20
2023-09-26T17:47:31.625Z,90.80
2023-09-26T17:50:01.269Z,91.10
2023-09-26T17:52:30.779Z,91.40
2023-09-26T17:54:57.736Z,91.70
2023-09-26T17:57:24.668Z,92.10
2023-09-26T17:59:52.009Z,92.30
2023-09-26T18:02:18.931Z,92.50
2023-09-26T18:04:45.944Z,93.00
2023-09-26T18:07:13.153Z,93.10
2023-09-26T18:09:40.060Z,93.20
2023-09-26T18:12:07.038Z,93.00
2023-09-26T18:14:36.667Z,92.70
2023-09-26T18:17:05.996Z,92.60
2023-09-26T18:19:33.061Z,92.60
2023-09-26T18:22:04.474Z,92.60
2023-09-26T18:24:33.085Z,92.80
2023-09-26T18:26:59.996Z,93.40
2023-09-26T18:29:27.202Z,93.50
2023-09-26T18:31:54.728Z,93.90
2023-09-26T18:34:24.119Z,94.30
2023-09-26T18:36:51.637Z,94.90
2023-09-26T18:39:20.049Z,95.00
2023-09-26T18:41:48.302Z,95.20
2023-09-26T18:44:15.323Z,95.30
2023-09-26T18:46:43.156Z,95.60
2023-09-26T18:49:10.213Z,95.70
2023-09-26T18:51:39.468Z,95.90
2023-09-26T18:54:06.438Z,96.10
2023-09-26T18:56:33.461Z,96.20
2023-09-26T18:59:02.227Z,96.60
2023-09-26T19:01:30.678Z,96.90
2023-09-26T19:03:58.974Z,97.00
2023-09-26T19:06:31.037Z,96.90
2023-09-26T19:08:58.451Z,97.10
2023-09-26T19:11:25.539Z,97.30
2023-09-26T19:13:55.278Z,97.40
2023-09-26T19:16:24.524Z,97.10
2023-09-26T19:19:03.753Z,97.10
2023-09-26T19:21:33.685Z,97.00
2023-09-26T19:24:00.736Z,97.40
2023-09-26T19:26:30.336Z,97.30
2023-09-26T19:28:59.970Z,98.20
2023-09-26T19:31:29.528Z,98.40
2023-09-26T19:33:56.629Z,98.50
2023-09-26T19:36:23.822Z,98.60
2023-09-26T19:38:52.034Z,98.80
2023-09-26T19:41:21.512Z,98.90
2023-09-26T19:43:52.540Z,99.00
2023-09-26T19:46:21.878Z,99.10
2023-09-26T19:48:50.676Z,99.20
2023-09-26T19:51:18.885Z,99.30
2023-09-26T19:53:46.929Z,99.80
2023-09-26T19:56:14.009Z,99.90
2023-09-26T19:58:44.216Z,99.90
2023-09-26T20:01:11.170Z,99.90
2023-09-26T20:03:40.309Z,99.90
2023-09-26T20:06:07.377Z,99.90
2023-09-26T20:08:34.295Z,99.90
2023-09-26T20:11:03.587Z,99.90
2023-09-26T20:13:30.614Z,99.90
2023-09-26T20:15:58.527Z,99.90
2023-09-26T20:18:25.495Z,99.90
2023-09-26T20:20:54.897Z,99.90
2023-09-26T20:23:27.145Z,99.90
2023-09-26T20:26:04.607Z,99.90
2023-09-26T20:28:32.192Z,99.90
2023-09-26T20:30:59.155Z,99.90
2023-09-26T20:33:27.324Z,99.90
2023-09-26T20:35:59.333Z,99.90
2023-09-26T20:38:29.607Z,99.90
2023-09-26T20:41:06.787Z,99.90
2023-09-26T20:43:34.033Z,99.90
2023-09-26T20:46:04.488Z,99.90
2023-09-26T20:48:31.553Z,99.90
2023-09-26T20:50:58.720Z,99.90
2023-09-26T20:53:26.194Z,99.90
2023-09-26T20:55:53.113Z,99.90
2023-09-26T20:58:22.733Z,99.90
2023-09-26T21:00:49.635Z,99.90
2023-09-26T21:03:19.659Z,99.90
2023-09-26T21:05:51.644Z,99.90
2023-09-26T21:08:18.620Z,99.90
2023-09-26T21:10:45.629Z,99.90
2023-09-26T21:13:12.464Z,99.90
2023-09-26T21:15:39.413Z,99.90
2023-09-26T21:18:06.702Z,99.90
2023-09-26T21:20:33.755Z,99.90
2023-09-26T21:23:00.772Z,99.90
2023-09-26T21:25:32.379Z,99.90
2023-09-26T21:27:59.307Z,99.90
2023-09-26T21:30:26.322Z,99.90
2023-09-26T21:32:53.315Z,99.90
2023-09-26T21:35:20.345Z,99.90
2023-09-26T21:37:47.688Z,99.90
2023-09-26T21:40:14.625Z,99.90
2023-09-26T21:42:41.717Z,99.90
2023-09-26T21:45:11.365Z,99.90
2023-09-26T21:47:40.850Z,99.90
2023-09-26T21:50:10.706Z,99.90
2023-09-26T21:52:38.072Z,99.90
2023-09-26T21:55:10.258Z,99.90
2023-09-26T21:57:42.110Z,99.90
2023-09-26T22:00:17.400Z,99.90
2023-09-26T22:02:44.520Z,99.90
2023-09-26T22:05:14.720Z,99.90
2023-09-26T22:07:41.769Z,99.90
2023-09-26T22:10:10.194Z,99.90
2023-09-26T22:12:37.244Z,99.90
2023-09-26T22:15:13.116Z,99.90
2023-09-26T22:17:41.448Z,99.90
2023-09-26T22:20:10.296Z,99.90
2023-09-26T22:22:37.615Z,99.90
2023-09-26T22:25:05.016Z,99.90
2023-09-26T22:27:34.544Z,99.90
2023-09-26T22:30:02.617Z,99.90
2023-09-26T22:32:31.860Z,99.90
2023-09-26T22:35:01.275Z,99.90
2023-09-26T22:37:28.557Z,99.90
2023-09-26T22:39:55.722Z,99.90
2023-09-26T22:42:24.880Z,99.90
2023-09-26T22:44:54.718Z,99.90
2023-09-26T22:47:24.311Z,99.90
2023-09-26T22:49:53.475Z,99.90
2023-09-26T22:52:23.136Z,99.90
2023-09-26T22:54:50.122Z,99.90
2023-09-26T22:57:17.169Z,99.90
2023-09-26T22:59:46.281Z,99.90
2023-09-26T23:02:13.295Z,99.90
2023-09-26T23:04:42.612Z,99.90
2023-09-26T23:07:10.452Z,99.90
2023-09-26T23:09:41.052Z,99.90
2023-09-26T23:12:12.814Z,99.90
2023-09-26T23:14:41.884Z,99.90
2023-09-26T23:17:11.815Z,99.90
2023-09-26T23:19:41.324Z,99.90
2023-09-26T23:22:08.286Z,99.90
2023-09-26T23:24:35.233Z,99.90
2023-09-26T23:27:02.676Z,99.90
2023-09-26T23:29:31.798Z,99.90
2023-09-26T23:31:58.970Z,99.90
2023-09-26T23:34:30.145Z,99.90
2023-09-26T23:36:58.085Z,99.90
2023-09-26T23:39:25.158Z,99.90
2023-09-26T23:41:55.335Z,99.90
2023-09-26T23:44:24.635Z,99.90
2023-09-26T23:46:51.645Z,99.90
2023-09-26T23:49:18.693Z,99.90
2023-09-26T23:51:45.609Z,99.90
2023-09-26T23:54:13.273Z,99.90
2023-09-26T23:56:41.288Z,99.90
2023-09-26T23:59:12.510Z,99.90
